Time;durP1;ratioP1;P1;durP2;ratioP2;P2;SDS_P1;SDS_P2;PMS_P1;PMS_P2;Temp;Humidity;BMP_temperature;BMP_pressure;BME280_temperature;BME280_humidity;BME280_pressure;Samples;Min_cycle;Max_cycle;Signal;HPM_P1;HPM_P2
2022/08/05 00:02:11;;;;;;;4.38;4.13;;;22.30;98.90;;;23.47;63.21;97501.31;5204268;28;20736;-64
2022/08/05 00:04:46;;;;;;;5.00;4.30;;;22.30;98.90;;;23.38;63.25;97507.38;5214421;28;20687;-64
2022/08/05 00:07:27;;;;;;;4.85;4.45;;;22.30;98.90;;;23.38;63.46;97507.38;5200991;28;20303;-64
2022/08/05 00:10:21;;;;;;;5.45;4.55;;;22.30;99.10;;;23.34;63.91;97504.75;5213480;28;20566;-64
2022/08/05 00:12:59;;;;;;;4.68;4.38;;;22.30;99.40;;;23.32;64.12;97504.78;5217388;28;20739;-64
2022/08/05 00:15:33;;;;;;;4.75;4.43;;;22.30;99.40;;;23.34;63.92;97510.84;5202634;28;20209;-64
2022/08/05 00:18:27;;;;;;;4.90;4.50;;;22.30;99.30;;;23.31;63.74;97497.81;5205228;28;20649;-64
2022/08/05 00:21:00;;;;;;;4.57;4.28;;;22.20;99.50;;;23.23;64.01;97504.75;5210245;28;20308;-64
2022/08/05 00:23:34;;;;;;;5.20;4.82;;;22.10;99.70;;;23.10;64.16;97503.00;5202396;28;20249;-64
2022/08/05 00:26:19;;;;;;;4.95;4.55;;;22.00;99.70;;;23.10;64.29;97497.78;5216311;28;20225;-64
2022/08/05 00:28:54;;;;;;;5.05;4.75;;;22.10;99.70;;;23.12;64.60;97501.25;5214602;28;20212;-64
2022/08/05 00:31:28;;;;;;;4.97;4.68;;;22.10;99.80;;;23.19;64.47;97500.41;5202082;28;20198;-64
2022/08/05 00:34:22;;;;;;;5.20;4.80;;;22.10;99.90;;;23.24;64.76;97501.28;5205937;28;20220;-64
2022/08/05 00:37:15;;;;;;;5.15;4.75;;;22.10;99.90;;;23.15;64.78;97498.69;5213692;28;20670;-64
2022/08/05 00:39:49;;;;;;;4.78;4.45;;;22.10;99.90;;;23.13;64.90;97497.78;5214455;28;20213;-64
2022/08/05 00:42:32;;;;;;;5.20;4.90;;;22.10;99.90;;;23.11;64.78;97495.16;5208407;28;20248;-64
2022/08/05 00:45:08;;;;;;;5.53;5.10;;;22.10;99.90;;;23.08;65.12;97495.16;5205712;28;20193;-64
2022/08/05 00:47:46;;;;;;;5.43;5.03;;;22.00;99.90;;;22.99;65.42;97494.28;5197995;28;21012;-64
2022/08/05 00:50:28;;;;;;;5.03;4.70;;;21.90;99.90;;;23.02;65.01;97494.28;5201588;28;20194;-64
2022/08/05 00:53:01;;;;;;;4.72;4.43;;;21.90;99.90;;;22.94;65.16;97496.84;5197982;28;20222;-64
2022/08/05 00:55:35;;;;;;;5.35;4.95;;;21.80;99.90;;;22.92;65.47;97493.34;5207439;28;20670;-65
2022/08/05 00:58:17;;;;;;;5.50;5.00;;;21.90;99.90;;;22.91;65.37;97487.28;5202486;28;20206;-64
2022/08/05 01:00:51;;;;;;;4.93;4.53;;;21.90;99.90;;;22.92;65.91;97490.75;5194438;28;20297;-64
2022/08/05 01:03:25;;;;;;;4.88;4.50;;;21.90;99.90;;;22.93;65.93;97482.94;5199716;28;20257;-64
2022/08/05 01:06:06;;;;;;;5.28;4.88;;;21.90;99.90;;;22.87;66.33;97482.94;5195700;28;20286;-64
2022/08/05 01:08:47;;;;;;;5.03;4.72;;;21.90;99.90;;;22.88;66.13;97482.06;5198916;28;20208;-64
2022/08/05 01:11:24;;;;;;;5.00;4.60;;;21.90;99.90;;;22.83;65.89;97486.38;5191220;28;20305;-64
2022/08/05 01:14:14;;;;;;;5.18;4.80;;;21.90;99.90;;;22.85;65.98;97489.88;5199517;28;20206;-64
2022/08/05 01:16:53;;;;;;;5.35;5.00;;;21.90;99.90;;;22.87;65.97;97487.28;5198631;28;20229;-64
2022/08/05 01:19:38;;;;;;;5.60;5.13;;;21.80;99.90;;;22.86;65.75;97490.72;5198591;28;20272;-64
2022/08/05 01:22:45;;;;;;;5.57;5.18;;;21.80;99.90;;;22.78;66.34;97495.94;5202202;28;20217;-64
2022/08/05 01:25:41;;;;;;;5.38;5.07;;;21.70;99.90;;;22.81;66.63;97509.00;5195509;28;20195;-65
2022/08/05 01:28:33;;;;;;;5.50;5.10;;;21.80;99.90;;;22.77;66.95;97525.47;5204756;28;20230;-64
2022/08/05 01:31:13;;;;;;;6.00;5.45;;;21.70;99.90;;;22.72;67.12;97532.41;5196669;28;20194;-64
2022/08/05 01:33:52;;;;;;;5.93;5.40;;;21.60;99.90;;;22.68;67.64;97538.47;5201930;28;20777;-64
2022/08/05 01:36:34;;;;;;;5.93;5.53;;;21.60;99.90;;;22.66;68.12;97545.41;5206113;28;20190;-64
2022/08/05 01:39:16;;;;;;;5.55;5.15;;;21.60;99.90;;;22.59;67.85;97552.31;5200529;28;20225;-65
2022/08/05 01:42:13;;;;;;;5.75;5.35;;;21.50;99.90;;;22.63;67.78;97555.81;5207251;28;20709;-65
2022/08/05 01:44:49;;;;;;;5.97;5.47;;;21.50;99.90;;;22.49;68.06;97554.03;5200742;28;20194;-64
2022/08/05 01:47:29;;;;;;;5.20;4.80;;;21.40;99.90;;;22.36;68.57;97544.41;5195053;28;20222;-64
2022/08/05 01:50:17;;;;;;;5.75;5.18;;;21.30;99.90;;;22.28;68.87;97546.09;5194762;28;20235;-64
2022/08/05 01:53:04;;;;;;;5.63;5.18;;;21.30;99.90;;;22.29;68.84;97560.88;5204563;28;20253;-65
2022/08/05 01:55:44;;;;;;;5.68;5.18;;;21.30;99.90;;;22.33;69.08;97565.22;5208060;28;20201;-64
2022/08/05 01:58:22;;;;;;;5.72;5.32;;;21.30;99.90;;;22.37;68.75;97561.75;5206754;28;20380;-64
2022/08/05 02:01:20;;;;;;;5.85;5.35;;;21.30;99.90;;;22.40;69.18;97560.91;5202130;28;20233;-65
2022/08/05 02:03:58;;;;;;;5.85;5.45;;;21.30;99.90;;;22.33;69.60;97578.25;5187492;28;20280;-64
2022/08/05 02:06:32;;;;;;;6.47;5.90;;;21.30;99.90;;;22.33;69.80;97567.81;5196055;28;20237;-64
2022/08/05 02:09:10;;;;;;;6.25;5.72;;;21.30;99.90;;;22.33;70.00;97570.44;5196834;28;20221;-64
2022/08/05 02:11:56;;;;;;;5.97;5.47;;;21.30;99.90;;;22.26;69.91;97573.84;5200934;28;20215;-64
2022/08/05 02:14:34;;;;;;;6.22;5.82;;;21.30;99.90;;;22.25;70.26;97572.13;5202915;28;20202;-64
2022/08/05 02:17:15;;;;;;;6.57;6.07;;;21.30;99.90;;;22.24;70.49;97565.19;5198849;28;20191;-64
2022/08/05 02:20:21;;;;;;;5.93;5.53;;;21.30;99.90;;;22.19;70.77;97572.06;5194121;28;20212;-64
2022/08/05 02:22:58;;;;;;;6.28;5.80;;;21.20;99.90;;;22.20;70.91;97579.00;5197816;28;20213;-65
2022/08/05 02:25:35;;;;;;;6.43;5.93;;;21.20;99.90;;;22.19;70.94;97585.09;5208143;28;20201;-64
2022/08/05 02:28:28;;;;;;;6.40;5.90;;;21.20;99.90;;;22.19;70.66;97579.88;5197411;28;20256;-64
2022/08/05 02:31:12;;;;;;;5.88;5.38;;;21.20;99.90;;;22.16;70.49;97596.31;5196984;28;20211;-64
2022/08/05 02:33:52;;;;;;;6.07;5.65;;;21.20;99.90;;;22.19;70.22;97587.69;5192222;28;20598;-63
2022/08/05 02:36:31;;;;;;;5.65;5.25;;;21.30;99.90;;;22.16;70.63;97595.47;5203242;28;20232;-64
2022/08/05 02:39:08;;;;;;;5.93;5.53;;;21.20;99.90;;;22.32;69.29;97599.94;5198997;28;20202;-64
2022/08/05 02:41:43;;;;;;;6.07;5.57;;;21.30;99.90;;;22.30;69.84;97598.19;5198117;28;20665;-64
2022/08/05 02:44:36;;;;;;;6.22;5.82;;;21.20;99.90;;;21.98;70.93;97597.06;5197874;28;20202;-64
2022/08/05 02:47:11;;;;;;;5.22;4.82;;;21.00;99.90;;;21.99;70.94;97605.75;5195833;28;20248;-64
2022/08/05 02:49:48;;;;;;;6.00;5.50;;;21.00;99.90;;;22.02;71.11;97606.63;5196331;28;20244;-64
2022/08/05 02:52:21;;;;;;;5.57;5.18;;;21.10;99.90;;;22.08;70.96;97600.59;5195313;28;20241;-64
2022/08/05 02:55:03;;;;;;;6.18;5.78;;;21.20;99.90;;;22.14;71.18;97599.78;5198058;28;20222;-64
2022/08/05 02:57:44;;;;;;;5.53;5.13;;;21.20;99.90;;;22.09;71.44;97596.25;5204030;28;20536;-64
2022/08/05 03:00:38;;;;;;;5.80;5.40;;;21.10;99.90;;;22.06;71.42;97597.09;5197414;28;20899;-64
2022/08/05 03:03:15;;;;;;;5.45;5.05;;;21.10;99.90;;;22.08;71.69;97604.94;5198551;28;20247;-64
2022/08/05 03:05:51;;;;;;;5.53;5.13;;;21.20;99.90;;;22.13;71.49;97608.47;5201082;28;20197;-64
2022/08/05 03:08:44;;;;;;;5.32;4.93;;;21.20;99.90;;;22.20;70.71;97607.66;5198246;28;20239;-64
2022/08/05 03:11:27;;;;;;;5.90;5.32;;;21.20;99.90;;;22.11;70.92;97611.03;5196055;28;20195;-64
2022/08/05 03:14:20;;;;;;;5.93;5.43;;;21.10;99.90;;;22.10;70.98;97604.09;5200084;28;20256;-65
2022/08/05 03:16:53;;;;;;;5.93;5.53;;;21.10;99.90;;;22.07;71.10;97603.22;5193506;28;20666;-64
2022/08/05 03:19:27;;;;;;;5.63;5.13;;;21.10;99.90;;;22.03;70.94;97597.97;5195675;28;20773;-64
2022/08/05 03:22:09;;;;;;;5.45;5.05;;;21.10;99.90;;;22.05;70.59;97596.25;5195925;28;20596;-64
2022/08/05 03:24:52;;;;;;;5.45;4.95;;;21.10;99.90;;;22.08;70.28;97607.53;5197331;28;20206;-64
2022/08/05 03:27:25;;;;;;;5.82;5.43;;;21.20;99.90;;;22.05;69.86;97606.66;5196955;28;20240;-65
2022/08/05 03:30:12;;;;;;;5.45;5.15;;;21.20;99.90;;;22.07;70.22;97626.63;5194736;28;20202;-64
2022/08/05 03:32:45;;;;;;;5.43;5.03;;;21.20;99.90;;;22.08;70.57;97629.25;5192419;28;21387;-64
2022/08/05 03:35:19;;;;;;;6.13;5.63;;;21.20;99.90;;;22.11;70.25;97631.00;5196890;28;20193;-64
2022/08/05 03:37:57;;;;;;;5.80;5.40;;;21.20;99.90;;;22.19;69.86;97634.56;5203129;28;20271;-64
2022/08/05 03:40:30;;;;;;;5.68;5.20;;;21.20;99.90;;;22.15;70.24;97628.44;5206274;28;20240;-64
2022/08/05 03:43:04;;;;;;;6.18;5.70;;;21.10;99.90;;;22.20;70.53;97642.38;5201829;28;20256;-64
2022/08/05 03:45:57;;;;;;;6.00;5.50;;;21.20;99.90;;;22.08;70.67;97639.66;5203220;28;20486;-64
2022/08/05 03:48:32;;;;;;;5.90;5.47;;;21.10;99.90;;;22.03;70.86;97647.44;5200149;28;20268;-65
2022/08/05 03:51:13;;;;;;;5.72;5.32;;;21.00;99.90;;;22.03;71.01;97649.16;5199142;28;20210;-64
2022/08/05 03:54:20;;;;;;;7.28;6.68;;;21.00;99.90;;;21.98;71.30;97640.44;5198262;28;20199;-64
2022/08/05 03:57:17;;;;;;;9.10;8.30;;;20.90;99.90;;;21.85;71.55;97644.66;5197050;28;20213;-63
2022/08/05 03:59:59;;;;;;;6.53;5.93;;;20.90;99.90;;;21.82;71.48;97653.31;5201705;28;20229;-64
2022/08/05 04:02:37;;;;;;;5.95;5.55;;;20.80;99.90;;;21.83;71.68;97646.38;5200573;28;20230;-64
2022/08/05 04:05:33;;;;;;;5.93;5.53;;;20.80;99.90;;;21.71;71.77;97643.66;5204516;28;20253;-64
2022/08/05 04:08:10;;;;;;;6.00;5.50;;;20.70;99.90;;;21.71;72.13;97657.53;5197061;28;20587;-64
2022/08/05 04:11:07;;;;;;;7.13;6.57;;;20.70;99.90;;;21.80;72.12;97667.16;5197063;28;20710;-64
2022/08/05 04:13:42;;;;;;;6.65;6.18;;;20.80;99.90;;;21.84;72.26;97668.97;5201115;28;20237;-64
2022/08/05 04:16:23;;;;;;;6.15;5.72;;;20.90;99.90;;;21.86;72.24;97659.41;5197498;28;20199;-63
2022/08/05 04:19:05;;;;;;;7.20;6.60;;;20.90;99.90;;;21.91;71.80;97662.06;5198764;28;20201;-63
2022/08/05 04:21:42;;;;;;;9.68;8.88;;;20.90;99.90;;;21.91;71.57;97665.53;5198224;28;20194;-63
2022/08/05 04:24:35;;;;;;;7.88;7.28;;;21.00;99.90;;;21.91;71.64;97659.47;5203768;28;20198;-63
2022/08/05 04:27:17;;;;;;;7.35;6.75;;;20.90;99.90;;;21.91;71.96;97670.75;5199884;28;20203;-63
2022/08/05 04:29:51;;;;;;;7.10;6.50;;;21.00;99.90;;;21.89;71.76;97674.19;5202310;28;20269;-63
2022/08/05 04:32:24;;;;;;;6.97;6.25;;;20.90;99.90;;;21.84;71.62;97668.09;5193272;28;20223;-63
2022/08/05 04:35:06;;;;;;;6.60;6.10;;;20.90;99.90;;;21.86;71.20;97672.41;5197215;28;20222;-63
2022/08/05 04:37:51;;;;;;;6.38;5.88;;;20.90;99.90;;;21.85;71.09;97662.88;5200240;28;20658;-63
2022/08/05 04:40:35;;;;;;;6.05;5.65;;;20.90;99.90;;;21.91;71.05;97654.25;5197257;28;20277;-63
2022/08/05 04:43:12;;;;;;;6.18;5.68;;;20.90;99.90;;;21.84;71.10;97665.50;5198979;28;20254;-66
2022/08/05 04:45:48;;;;;;;6.65;6.15;;;20.90;99.90;;;21.80;71.46;97673.28;5197444;28;20296;-64
2022/08/05 04:48:27;;;;;;;6.53;5.97;;;20.90;99.90;;;21.90;71.42;97692.44;5197086;28;20229;-64
2022/08/05 04:51:01;;;;;;;6.68;6.18;;;21.00;99.90;;;21.99;71.22;97689.91;5191986;28;20211;-64
2022/08/05 04:53:43;;;;;;;9.02;8.43;;;21.10;99.90;;;22.13;70.90;97695.25;5205115;28;20303;-64
2022/08/05 04:56:17;;;;;;;8.77;8.07;;;21.20;99.90;;;22.19;71.14;97699.66;5195192;28;20193;-64
2022/08/05 04:59:10;;;;;;;8.40;7.80;;;21.30;99.90;;;22.29;70.92;97719.72;5194776;28;20280;-64
2022/08/05 05:01:57;;;;;;;6.95;6.35;;;21.40;99.90;;;22.40;70.89;97723.25;5198346;28;20320;-64
2022/08/05 05:04:50;;;;;;;6.50;6.00;;;21.50;99.90;;;22.52;70.71;97729.44;5196466;28;20209;-64
2022/08/05 05:07:23;;;;;;;6.75;6.15;;;21.60;99.90;;;22.65;69.75;97744.31;5196918;28;20221;-64
2022/08/05 05:10:05;;;;;;;7.53;6.82;;;21.60;99.90;;;22.71;69.59;97745.22;5203100;28;20262;-64
2022/08/05 05:12:38;;;;;;;7.38;6.68;;;21.60;99.90;;;22.77;69.46;97748.72;5195046;28;20316;-64
2022/08/05 05:15:13;;;;;;;7.10;6.50;;;21.60;99.90;;;22.76;69.39;97753.06;5202165;28;20261;-64
2022/08/05 05:18:06;;;;;;;6.88;5.97;;;21.70;99.90;;;22.80;69.74;97765.25;5189142;28;20211;-64
2022/08/05 05:20:43;;;;;;;6.95;6.45;;;21.80;99.90;;;22.82;69.26;97773.97;5198066;28;20280;-64
2022/08/05 05:23:18;;;;;;;6.88;6.28;;;21.70;99.90;;;22.87;69.46;97781.84;5203582;28;20213;-64
2022/08/05 05:25:52;;;;;;;7.28;6.68;;;21.90;99.90;;;23.01;69.12;97784.56;5203386;28;20240;-64
2022/08/05 05:28:25;;;;;;;7.18;6.57;;;22.20;99.90;;;23.36;67.75;97787.38;5195388;28;20314;-64
2022/08/05 05:31:02;;;;;;;6.68;6.28;;;22.50;99.90;;;23.41;67.46;97792.59;5198316;28;20252;-64
2022/08/05 05:33:40;;;;;;;6.82;6.32;;;22.40;99.90;;;23.33;67.82;97809.09;5197818;28;20226;-64
2022/08/05 05:36:32;;;;;;;7.00;6.45;;;22.30;99.90;;;23.27;67.70;97834.28;5202627;28;20604;-64
2022/08/05 05:39:09;;;;;;;6.13;5.53;;;22.20;99.90;;;23.27;67.25;97853.41;5198425;28;20281;-64
2022/08/05 05:41:43;;;;;;;6.35;5.80;;;22.00;99.90;;;23.20;67.25;97853.34;5190510;28;20217;-64
2022/08/05 05:44:26;;;;;;;6.35;5.80;;;22.00;99.90;;;23.17;67.38;97862.00;5204111;28;20201;-64
2022/08/05 05:47:10;;;;;;;6.35;5.82;;;22.00;99.90;;;23.07;67.96;97860.22;5193062;28;20684;-64
2022/08/05 05:50:03;;;;;;;6.15;5.57;;;22.00;99.90;;;22.97;68.79;97866.22;5191862;28;20215;-64
2022/08/05 05:52:38;;;;;;;6.45;5.95;;;21.90;99.90;;;22.93;68.93;97873.97;5201388;28;20225;-64
2022/08/05 05:55:19;;;;;;;6.57;6.05;;;21.90;99.90;;;22.93;69.34;97873.97;5190649;28;20205;-64
2022/08/05 05:57:53;;;;;;;6.88;6.28;;;22.00;99.90;;;22.93;69.24;97879.19;5198885;28;20694;-64
2022/08/05 06:00:26;;;;;;;7.38;6.05;;;22.00;99.90;;;22.97;69.34;97892.28;5198071;28;20252;-64
2022/08/05 06:03:08;;;;;;;7.25;5.97;;;22.00;99.90;;;23.04;69.13;97897.56;5193621;28;20218;-64
2022/08/05 06:06:01;;;;;;;6.38;5.78;;;22.10;99.90;;;23.12;68.51;97889.78;5202137;28;20659;-64
2022/08/05 06:08:36;;;;;;;8.70;5.80;;;22.20;99.90;;;23.14;68.10;97896.78;5198592;28;20236;-64
2022/08/05 06:11:11;;;;;;;5.97;5.55;;;22.20;99.90;;;23.20;68.02;97902.91;5199446;28;20209;-64
2022/08/05 06:13:45;;;;;;;6.78;6.20;;;22.20;99.90;;;23.25;68.13;97902.06;5203908;28;20232;-64
2022/08/05 06:16:25;;;;;;;6.57;5.70;;;22.30;99.90;;;23.68;67.85;97909.31;5199229;28;20201;-64
2022/08/05 06:19:06;;;;;;;6.38;5.70;;;22.70;99.90;;;24.34;66.50;97901.81;5196375;28;20225;-64
2022/08/05 06:21:40;;;;;;;6.95;5.95;;;23.30;99.90;;;24.95;62.19;97899.31;5201422;28;20663;-64
2022/08/05 06:24:21;;;;;;;5.53;5.03;;;23.80;99.90;;;25.60;60.08;97908.91;5199754;28;20198;-64
2022/08/05 06:26:59;;;;;;;5.90;5.40;;;24.40;99.70;;;26.44;57.79;97891.16;5197796;28;20225;-64
2022/08/05 06:29:35;;;;;;;6.13;5.50;;;25.10;98.10;;;27.31;54.47;97895.84;5203543;28;20280;-64
2022/08/05 06:32:28;;;;;;;6.97;4.90;;;25.90;96.00;;;28.16;51.17;97882.69;5206101;28;20226;-64
2022/08/05 06:35:02;;;;;;;7.57;4.70;;;26.50;94.00;;;28.73;49.72;97887.16;5208209;28;20209;-64
2022/08/05 06:37:38;;;;;;;5.57;4.70;;;27.00;92.80;;;29.48;47.08;97896.50;5206103;28;20223;-64
2022/08/05 06:40:30;;;;;;;7.85;4.82;;;27.70;91.40;;;30.18;45.79;97883.72;5206006;28;20232;-64
2022/08/05 06:43:04;;;;;;;8.20;4.53;;;28.30;90.20;;;30.61;44.42;97893.38;5205863;28;20402;-64
2022/08/05 06:45:57;;;;;;;9.38;4.88;;;28.60;88.80;;;31.15;43.46;97890.34;5189259;28;20209;-65
2022/08/05 06:48:39;;;;;;;5.63;5.13;;;29.10;87.00;;;31.44;42.31;97901.97;5199117;28;20204;-65
2022/08/05 06:51:32;;;;;;;5.95;4.57;;;29.50;85.40;;;31.83;41.85;97889.47;5195678;28;20639;-65
2022/08/05 06:54:05;;;;;;;8.05;5.00;;;29.80;84.40;;;32.08;41.10;97892.34;5202089;28;20240;-65
2022/08/05 06:56:40;;;;;;;5.07;4.55;;;30.00;83.30;;;32.33;40.75;97888.94;5202301;28;20193;-64
2022/08/05 06:59:27;;;;;;;6.25;4.30;;;30.40;82.40;;;32.67;39.66;97883.53;5198526;28;20243;-64
2022/08/05 07:02:10;;;;;;;4.57;4.00;;;30.70;81.30;;;32.74;39.42;97877.13;5197107;28;20299;-64
2022/08/05 07:04:46;;;;;;;5.25;3.50;;;30.90;80.10;;;33.05;37.72;97883.22;5195830;28;20224;-63
2022/08/05 07:07:21;;;;;;;5.15;3.90;;;31.20;77.70;;;33.47;37.25;97893.31;5191396;28;20218;-65
2022/08/05 07:10:09;;;;;;;6.40;3.88;;;31.60;76.90;;;33.73;36.76;97882.69;5197089;28;20206;-64
2022/08/05 07:18:36;;;;;;;4.80;3.38;;;31.90;75.00;;;33.85;36.30;97873.41;5197025;28;20201;-64
2022/08/05 07:21:19;;;;;;;3.30;3.03;;;32.00;73.50;;;33.79;35.91;97873.63;5194907;28;20564;-65
2022/08/05 07:23:59;;;;;;;5.72;3.30;;;31.90;73.50;;;33.96;35.85;97889.78;5198679;28;20228;-64
2022/08/05 07:26:33;;;;;;;3.28;2.78;;;32.10;73.30;;;34.18;35.25;97874.00;5196831;28;20197;-64
2022/08/05 07:29:06;;;;;;;3.63;2.70;;;32.20;72.30;;;34.06;34.64;97872.66;5191810;28;20601;-64
2022/08/05 07:31:42;;;;;;;3.70;2.97;;;32.30;70.90;;;33.85;34.53;97889.31;5202907;28;20193;-64
2022/08/05 07:34:27;;;;;;;3.63;3.33;;;32.30;70.10;;;34.48;34.42;97881.69;5199659;28;20201;-63
2022/08/05 07:37:00;;;;;;;3.92;3.10;;;32.60;70.30;;;35.02;33.07;97880.44;5198653;28;20297;-63
2022/08/05 07:39:35;;;;;;;4.47;3.30;;;32.90;69.00;;;34.39;34.05;97888.22;5195725;28;20233;-63
2022/08/05 07:42:28;;;;;;;3.78;3.00;;;32.20;70.30;;;34.08;34.21;97900.03;5200526;28;20238;-64
2022/08/05 07:45:07;;;;;;;3.35;2.88;;;31.90;70.50;;;33.90;34.36;97892.69;5207410;28;20197;-64
2022/08/05 07:47:41;;;;;;;3.63;3.00;;;31.70;70.60;;;33.70;35.32;97903.16;5195229;28;20669;-64
2022/08/05 07:50:15;;;;;;;3.17;2.88;;;31.70;71.40;;;34.09;34.13;97907.03;5200820;28;20759;-63
2022/08/05 07:52:48;;;;;;;3.40;3.10;;;31.90;70.70;;;33.76;34.72;97908.22;5195033;28;20222;-63
2022/08/05 07:55:23;;;;;;;3.80;3.00;;;31.30;71.60;;;34.21;33.93;97895.09;5195240;28;20251;-65
2022/08/05 07:58:16;;;;;;;4.07;2.88;;;31.60;71.20;;;34.81;33.26;97900.78;5197509;28;20676;-63
2022/08/05 08:01:09;;;;;;;3.22;2.55;;;32.20;69.60;;;35.18;32.41;97910.81;5202228;28;20225;-63
2022/08/05 08:03:44;;;;;;;2.65;2.42;;;32.70;69.10;;;35.33;31.98;97919.94;5198068;28;20747;-64
2022/08/05 08:06:23;;;;;;;3.28;2.50;;;33.00;67.20;;;34.94;31.55;97912.66;5195443;28;20653;-64
2022/08/05 08:09:00;;;;;;;2.67;2.30;;;32.90;66.30;;;34.74;31.40;97921.41;5188489;28;20301;-64
2022/08/05 08:11:34;;;;;;;2.55;2.35;;;33.10;64.60;;;34.35;31.93;97917.63;5201312;28;20257;-64
2022/08/05 08:14:27;;;;;;;2.60;2.40;;;32.80;64.70;;;34.49;31.45;97905.53;5193961;28;20661;-64
2022/08/05 08:17:00;;;;;;;2.60;2.40;;;33.00;63.30;;;34.65;30.96;97918.25;5193241;28;20241;-65
2022/08/05 08:19:33;;;;;;;2.42;2.22;;;33.20;62.90;;;34.53;31.77;97920.41;5195869;28;20245;-64
2022/08/05 08:22:27;;;;;;;2.35;2.25;;;33.10;63.60;;;34.63;30.77;97913.00;5187292;28;20224;-63
2022/08/05 08:25:01;;;;;;;3.10;2.40;;;33.30;62.20;;;34.58;31.18;97922.06;5199222;28;20209;-63
2022/08/05 08:27:36;;;;;;;2.50;2.30;;;33.40;62.50;;;34.01;31.07;97919.69;5199487;28;20268;-63
2022/08/05 08:30:19;;;;;;;2.30;1.85;;;33.00;60.80;;;34.18;31.09;97904.97;5197549;28;20303;-63
2022/08/05 08:33:09;;;;;;;2.35;2.25;;;33.00;61.60;;;34.25;30.92;97906.47;5205111;28;20213;-64
2022/08/05 08:35:46;;;;;;;2.38;2.17;;;33.20;60.30;;;34.29;30.82;97906.31;5206554;28;20198;-64
2022/08/05 08:38:35;;;;;;;2.88;2.30;;;33.20;60.60;;;34.12;30.44;97911.38;5202057;28;20666;-64
2022/08/05 08:41:12;;;;;;;2.20;1.85;;;33.10;59.90;;;34.12;29.92;97900.75;5206342;28;20197;-65
2022/08/05 08:43:48;;;;;;;2.00;1.90;;;33.20;59.10;;;34.07;30.36;97905.38;5204980;28;20228;-64
2022/08/05 08:46:42;;;;;;;2.40;2.20;;;33.00;59.60;;;34.28;30.16;97909.88;5198607;28;20194;-64
2022/08/05 08:49:16;;;;;;;2.20;2.08;;;33.20;59.50;;;34.29;29.48;97911.59;5193218;28;20228;-65
2022/08/05 08:52:14;;;;;;;2.17;2.00;;;33.40;58.80;;;34.18;29.86;97918.25;5202854;28;20221;-64
2022/08/05 08:54:47;;;;;;;2.80;2.00;;;33.30;59.10;;;33.99;30.09;97915.34;5200131;28;20284;-66
2022/08/05 08:57:21;;;;;;;2.08;1.98;;;33.40;59.00;;;33.99;30.35;97910.91;5202646;28;20306;-64
2022/08/05 09:00:04;;;;;;;2.42;2.13;;;33.10;59.90;;;34.15;30.98;97915.72;5195211;28;20688;-64
2022/08/05 09:02:37;;;;;;;2.30;2.10;;;33.30;59.40;;;34.37;29.77;97921.94;5197157;28;20245;-64
2022/08/05 09:05:12;;;;;;;2.03;1.92;;;33.60;58.90;;;34.45;29.93;97916.31;5203245;28;20197;-64
2022/08/05 09:07:52;;;;;;;2.17;2.00;;;33.60;59.00;;;34.50;30.40;97909.91;5198557;28;20201;-65
2022/08/05 09:10:30;;;;;;;2.08;1.88;;;33.70;59.00;;;34.53;30.32;97914.25;5197040;28;20217;-64
2022/08/05 09:13:03;;;;;;;2.20;2.00;;;33.70;58.90;;;34.74;29.59;97917.88;5202295;28;20688;-65
2022/08/05 09:15:39;;;;;;;2.63;2.22;;;33.90;58.60;;;34.45;29.60;97908.34;5200466;28;20288;-64
2022/08/05 09:18:12;;;;;;;2.40;2.20;;;33.60;58.40;;;34.54;30.07;97895.59;5199419;28;20197;-65
2022/08/05 09:20:50;;;;;;;2.17;2.08;;;33.50;58.50;;;34.43;29.42;97894.31;5204157;28;20231;-64
2022/08/05 09:23:23;;;;;;;2.78;2.15;;;33.60;58.50;;;34.35;30.13;97888.41;5203167;28;20793;-64
2022/08/05 09:26:10;;;;;;;2.95;2.17;;;33.60;58.90;;;34.46;29.69;97889.72;5198251;28;20227;-64
2022/08/05 09:28:59;;;;;;;2.50;2.30;;;33.70;58.30;;;34.27;30.04;97883.38;5203191;28;20296;-63
2022/08/05 09:31:34;;;;;;;2.00;1.90;;;33.20;58.90;;;34.30;30.02;97885.94;5199248;28;20332;-64
2022/08/05 09:34:47;;;;;;;1.98;1.75;;;33.30;58.50;;;34.26;30.45;97871.06;5195277;28;20193;-63
2022/08/05 09:37:24;;;;;;;2.28;2.08;;;33.40;58.40;;;34.41;29.39;97870.44;5198352;28;20202;-64
2022/08/05 09:40:32;;;;;;;2.85;2.00;;;33.40;58.20;;;34.42;29.49;97858.88;5193704;28;20202;-64
2022/08/05 09:43:06;;;;;;;2.13;1.92;;;33.50;58.30;;;34.65;29.35;97854.50;5201347;28;20724;-64
2022/08/05 09:45:43;;;;;;;2.30;2.10;;;33.80;58.20;;;34.39;29.09;97856.34;5202869;28;20225;-64
2022/08/05 09:48:38;;;;;;;2.13;2.03;;;33.40;58.20;;;34.17;29.11;97850.16;5205946;28;20206;-64
2022/08/05 09:51:11;;;;;;;2.42;2.22;;;33.00;58.40;;;33.98;29.20;97840.22;5201837;28;20308;-64
2022/08/05 09:53:52;;;;;;;2.38;2.05;;;32.80;58.20;;;33.67;30.13;97842.25;5197557;28;20319;-64
2022/08/05 09:56:34;;;;;;;2.35;2.17;;;32.40;59.30;;;33.53;30.58;97837.44;5199572;28;20227;-64
2022/08/05 09:59:11;;;;;;;2.25;2.03;;;32.20;59.70;;;33.38;30.79;97842.34;5200654;28;20283;-64
2022/08/05 10:01:51;;;;;;;2.22;2.13;;;32.00;60.00;;;33.24;31.38;97846.41;5198981;28;20574;-63
2022/08/05 10:04:39;;;;;;;2.30;2.08;;;31.80;61.50;;;32.96;32.02;97842.00;5201615;28;20193;-64
2022/08/05 10:07:13;;;;;;;2.60;2.40;;;31.60;62.10;;;32.78;32.01;97837.31;5201253;28;20576;-63
2022/08/05 10:10:05;;;;;;;2.72;2.38;;;31.40;61.50;;;32.80;31.71;97830.19;5204279;28;20194;-64
2022/08/05 10:12:52;;;;;;;2.35;2.15;;;31.40;61.50;;;32.89;32.01;97829.88;5192497;28;20274;-63
2022/08/05 10:15:30;;;;;;;2.50;2.30;;;31.60;60.70;;;33.46;31.76;97830.63;5198920;28;20200;-63
2022/08/05 10:18:13;;;;;;;2.30;2.10;;;32.30;59.90;;;33.80;30.19;97833.81;5198680;28;20600;-63
2022/08/05 10:20:52;;;;;;;2.40;2.13;;;32.70;59.20;;;33.96;30.82;97830.56;5193458;28;20653;-64
2022/08/05 10:23:29;;;;;;;2.50;2.28;;;33.00;59.10;;;33.94;30.98;97828.00;5200020;28;20890;-64
2022/08/05 10:26:22;;;;;;;2.60;2.40;;;33.20;58.90;;;34.06;30.09;97821.38;5199806;28;20197;-64
2022/08/05 10:29:07;;;;;;;2.53;2.00;;;33.20;58.50;;;34.17;30.34;97823.59;5199618;28;20204;-64
2022/08/05 10:31:41;;;;;;;2.85;2.45;;;33.40;58.90;;;34.05;30.87;97828.50;5197128;28;20231;-64
2022/08/05 10:34:35;;;;;;;3.10;2.17;;;33.20;59.20;;;34.20;29.56;97826.16;5197351;28;20216;-65
2022/08/05 10:37:14;;;;;;;2.10;2.00;;;33.40;58.20;;;33.86;30.09;97825.63;5205133;28;20197;-64
2022/08/05 10:39:50;;;;;;;2.45;2.25;;;33.00;58.40;;;34.01;29.99;97824.16;5198689;28;20200;-64
2022/08/05 10:42:38;;;;;;;2.55;2.20;;;33.10;58.40;;;34.13;30.62;97820.22;5201513;28;20222;-64
2022/08/05 10:45:21;;;;;;;3.47;2.20;;;33.30;58.70;;;34.20;29.61;97820.88;5197449;28;20205;-63
2022/08/05 10:48:32;;;;;;;2.20;2.10;;;33.40;57.80;;;34.16;30.09;97820.09;5191126;28;20603;-64
2022/08/05 10:51:24;;;;;;;2.78;2.20;;;33.30;57.90;;;34.24;29.74;97811.84;5199571;28;20218;-64
2022/08/05 10:54:03;;;;;;;2.38;2.25;;;33.40;57.50;;;34.27;29.62;97815.22;5193518;28;20464;-66
2022/08/05 10:56:57;;;;;;;2.38;2.17;;;33.40;57.70;;;34.24;29.62;97815.34;5200703;28;20203;-64
2022/08/05 10:59:34;;;;;;;2.50;2.10;;;33.40;57.80;;;34.39;29.06;97823.66;5199029;28;20208;-64
2022/08/05 11:02:27;;;;;;;2.30;2.20;;;33.60;57.50;;;34.33;29.76;97816.78;5194377;28;20228;-66
2022/08/05 11:05:10;;;;;;;2.55;2.20;;;33.50;57.60;;;34.29;29.43;97817.84;5196342;28;20290;-65
2022/08/05 11:08:01;;;;;;;2.10;2.00;;;33.40;57.60;;;34.26;29.47;97815.31;5209323;28;20212;-65
2022/08/05 11:11:37;;;;;;;2.35;2.25;;;33.40;57.90;;;34.05;29.29;97823.19;5196920;28;20201;-66
2022/08/05 11:14:27;;;;;;;2.50;2.30;;;33.30;57.70;;;34.24;28.70;97825.13;5198751;28;20195;-65
2022/08/05 11:17:31;;;;;;;2.05;1.95;;;33.40;57.30;;;34.13;29.27;97820.22;5194859;28;20559;-66
2022/08/05 11:20:41;;;;;;;2.70;2.28;;;33.30;57.10;;;33.94;29.64;97817.38;5196272;28;20193;-65
2022/08/05 11:23:31;;;;;;;2.78;2.50;;;33.00;57.60;;;33.92;29.20;97813.91;5197836;28;20244;-65
2022/08/05 11:26:26;;;;;;;2.33;1.88;;;32.90;57.50;;;33.76;30.16;97818.06;5196328;28;20202;-65
2022/08/05 11:29:05;;;;;;;3.13;2.20;;;32.80;57.70;;;33.86;30.73;97814.16;5188524;28;20201;-65